Time;durP1;ratioP1;P1;durP2;ratioP2;P2;SDS_P1;SDS_P2;PMS_P1;PMS_P2;Temp;Humidity;BMP_temperature;BMP_pressure;BME280_temperature;BME280_humidity;BME280_pressure;Samples;Min_cycle;Max_cycle;Signal;HPM_P1;HPM_P2
2022/01/15 00:02:32;;;;;;;30.85;17.13;;;;;;;4.06;100.00;101308.13;5034899;28;20347;-71
2022/01/15 00:05:19;;;;;;;30.73;17.90;;;;;;;3.90;100.00;101313.88;5034270;28;20037;-71
2022/01/15 00:08:05;;;;;;;37.08;17.52;;;;;;;4.47;100.00;101325.28;5020161;28;20025;-71
2022/01/15 00:10:51;;;;;;;31.58;17.05;;;;;;;4.38;100.00;101321.69;5034105;28;20029;-71
2022/01/15 00:13:39;;;;;;;31.25;18.05;;;;;;;4.49;100.00;101326.19;5034680;28;20040;-70
2022/01/15 00:16:33;;;;;;;31.35;17.30;;;;;;;4.42;100.00;101332.13;5034333;28;20043;-71
2022/01/15 00:19:21;;;;;;;30.35;16.88;;;;;;;4.38;100.00;101324.28;5035067;28;20025;-71
2022/01/15 00:22:18;;;;;;;27.42;16.45;;;;;;;4.64;100.00;101326.44;5020542;28;20022;-70
2022/01/15 00:25:05;;;;;;;30.55;17.42;;;;;;;4.51;100.00;101323.63;5034479;28;20068;-70
2022/01/15 00:27:57;;;;;;;31.45;17.40;;;;;;;4.12;100.00;101335.91;5033538;28;20036;-69
2022/01/15 00:30:42;;;;;;;29.50;18.25;;;;;;;3.97;100.00;101348.56;5032793;28;20128;-70
2022/01/15 00:33:30;;;;;;;32.30;18.63;;;;;;;4.14;100.00;101354.97;5034905;28;20026;-71
2022/01/15 00:36:16;;;;;;;30.63;18.02;;;;;;;4.12;100.00;101338.50;5034835;28;20037;-71
2022/01/15 00:39:02;;;;;;;28.55;18.23;;;;;;;4.34;100.00;101328.53;5034399;28;20116;-71
2022/01/15 00:41:48;;;;;;;32.95;17.92;;;;;;;4.16;100.00;101330.81;5034393;28;20033;-70
2022/01/15 00:44:35;;;;;;;33.38;19.35;;;;;;;4.14;100.00;101332.47;5033100;28;20029;-70
2022/01/15 00:47:21;;;;;;;33.25;18.15;;;;;;;4.52;100.00;101344.41;5022385;28;20154;-70
2022/01/15 00:50:08;;;;;;;31.27;18.17;;;;;;;4.28;100.00;101356.97;5034082;28;20220;-70
2022/01/15 00:52:53;;;;;;;34.95;20.30;;;;;;;4.37;100.00;101359.72;5032950;28;20033;-71
2022/01/15 00:55:39;;;;;;;35.40;19.48;;;;;;;4.07;100.00;101359.13;5033870;28;20037;-71
2022/01/15 00:58:25;;;;;;;33.95;18.77;;;;;;;3.90;100.00;101378.69;5032627;28;20036;-71
2022/01/15 01:01:11;;;;;;;34.10;19.80;;;;;;;4.14;100.00;101379.16;5031941;28;20025;-70
2022/01/15 01:04:00;;;;;;;33.42;19.02;;;;;;;3.95;100.00;101374.47;5032153;28;20520;-71
2022/01/15 01:06:45;;;;;;;40.13;20.38;;;;;;;3.86;100.00;101381.19;5033520;28;20099;-71
2022/01/15 01:22:53;;;;;;;35.75;19.83;;;;;;;4.15;100.00;101370.53;5037081;28;20025;-70
2022/01/15 01:25:44;;;;;;;35.28;19.52;;;;;;;4.05;100.00;101376.41;5036766;28;20096;-70
2022/01/15 01:28:35;;;;;;;33.38;18.42;;;;;;;4.20;100.00;101375.81;5035596;28;20458;-71
2022/01/15 01:31:29;;;;;;;35.47;20.48;;;;;;;4.07;100.00;101364.31;5035690;28;20025;-70
2022/01/15 01:34:15;;;;;;;30.98;17.88;;;;;;;4.19;100.00;101377.50;4995493;28;20033;-71
2022/01/15 01:39:55;;;;;;;35.53;19.23;;;;;;;4.25;100.00;101371.56;4995398;28;20105;-71
2022/01/15 01:42:42;;;;;;;34.78;19.25;;;;;;;4.08;100.00;101371.28;4995827;28;20117;-71
2022/01/15 01:45:29;;;;;;;34.97;19.60;;;;;;;3.99;100.00;101375.41;4996678;28;20037;-71
2022/01/15 01:48:15;;;;;;;36.30;19.63;;;;;;;4.25;100.00;101374.16;4996604;28;20050;-72
2022/01/15 01:51:01;;;;;;;36.92;20.27;;;;;;;3.86;100.00;101376.88;4996995;28;20061;-70
2022/01/15 01:57:29;;;;;;;36.15;20.10;;;;;;;3.64;100.00;101384.19;5094213;23;20060;-73
2022/01/15 02:00:18;;;;;;;34.92;20.52;;;;;;;3.97;100.00;101380.56;5055783;28;20094;-73
2022/01/15 02:03:04;;;;;;;37.00;18.92;;;;;;;3.82;100.00;101382.84;5043019;28;20079;-73
2022/01/15 02:05:51;;;;;;;32.67;18.48;;;;;;;3.73;100.00;101395.63;5042984;28;20098;-74
2022/01/15 02:08:37;;;;;;;34.80;19.40;;;;;;;3.38;100.00;101391.38;5056389;28;20028;-74
2022/01/15 02:11:25;;;;;;;36.00;19.08;;;;;;;3.60;100.00;101392.72;5055690;28;20159;-73
2022/01/15 02:14:27;;;;;;;33.22;18.42;;;;;;;3.45;100.00;101398.47;5057148;28;20029;-74
2022/01/15 02:23:51;;;;;;;32.58;18.13;;;;;;;3.17;100.00;101403.88;5056054;28;20044;-74
2022/01/15 02:26:39;;;;;;;34.42;18.90;;;;;;;3.22;100.00;101410.00;5056665;28;20449;-73
2022/01/15 02:29:24;;;;;;;32.78;18.38;;;;;;;3.40;100.00;101418.22;5056419;28;20111;-73
2022/01/15 02:32:10;;;;;;;33.38;18.15;;;;;;;3.28;100.00;101428.28;5055906;28;20104;-73
2022/01/15 02:34:57;;;;;;;35.15;18.23;;;;;;;3.33;100.00;101428.38;5055704;28;20020;-73
2022/01/15 02:37:43;;;;;;;32.58;19.10;;;;;;;3.05;100.00;101426.88;5056602;28;20028;-74
2022/01/15 02:40:29;;;;;;;35.90;18.95;;;;;;;3.11;100.00;101427.03;5055458;28;20469;-72
2022/01/15 02:43:19;;;;;;;35.50;20.20;;;;;;;3.03;100.00;101423.41;5040932;28;20021;-73
2022/01/15 02:46:19;;;;;;;35.50;19.58;;;;;;;3.08;100.00;101421.78;5042565;28;20442;-72
2022/01/15 02:49:06;;;;;;;29.92;18.15;;;;;;;3.37;100.00;101431.09;5055052;28;20029;-72
2022/01/15 02:51:52;;;;;;;36.45;19.20;;;;;;;3.20;100.00;101423.78;5056011;28;20033;-72
2022/01/15 02:54:38;;;;;;;31.67;18.13;;;;;;;3.42;100.00;101428.63;5041550;28;20105;-73
2022/01/15 02:57:24;;;;;;;30.52;17.60;;;;;;;3.54;100.00;101439.25;5055517;28;20088;-72
2022/01/15 03:00:10;;;;;;;33.50;18.55;;;;;;;3.65;100.00;101448.09;5054822;28;20199;-72
2022/01/15 03:02:56;;;;;;;28.65;17.00;;;;;;;3.39;100.00;101437.19;5055123;28;20053;-72
2022/01/15 03:12:02;;;;;;;30.95;17.52;;;;;;;3.83;100.00;101452.00;5034866;28;20064;-71
2022/01/15 03:14:48;;;;;;;31.65;17.85;;;;;;;3.81;100.00;101452.78;5034896;28;20037;-71
2022/01/15 03:17:35;;;;;;;31.08;17.83;;;;;;;3.99;100.00;101454.03;5035000;28;20458;-71
2022/01/15 03:20:21;;;;;;;27.85;17.02;;;;;;;4.15;100.00;101465.63;5035943;28;20085;-71
2022/01/15 03:23:07;;;;;;;28.05;16.80;;;;;;;3.84;100.00;101461.50;5034951;28;20450;-71
2022/01/15 03:25:54;;;;;;;29.63;16.95;;;;;;;4.04;100.00;101460.22;5036558;28;20071;-71
2022/01/15 03:28:41;;;;;;;33.25;18.40;;;;;;;4.27;100.00;101458.94;5035871;28;20116;-70
2022/01/15 03:31:52;;;;;;;30.35;17.15;;;;;;;4.19;100.00;101470.00;5035733;28;20086;-73
2022/01/15 03:34:44;;;;;;;29.20;17.58;;;;;;;4.24;100.00;101478.75;5019902;28;20025;-72
2022/01/15 03:37:30;;;;;;;27.25;16.38;;;;;;;4.55;100.00;101483.69;5034651;28;20120;-72
2022/01/15 03:40:17;;;;;;;29.85;16.70;;;;;;;4.05;100.00;101494.78;5035659;28;20036;-72
2022/01/15 03:43:04;;;;;;;26.25;16.15;;;;;;;3.87;100.00;101502.16;5033942;28;20033;-72
2022/01/15 03:45:50;;;;;;;29.25;16.77;;;;;;;3.82;100.00;101499.47;5034429;28;20025;-72
2022/01/15 03:48:36;;;;;;;26.00;15.82;;;;;;;4.03;100.00;101499.06;5034665;28;20362;-72
2022/01/15 03:51:21;;;;;;;28.23;16.60;;;;;;;4.45;100.00;101506.00;5035177;28;20096;-72
2022/01/15 03:54:07;;;;;;;26.17;16.42;;;;;;;4.42;100.00;101518.91;5035040;28;20029;-72
2022/01/15 03:56:53;;;;;;;28.95;16.35;;;;;;;4.28;100.00;101525.53;5035348;28;20458;-72
2022/01/15 03:59:51;;;;;;;27.52;16.52;;;;;;;4.17;100.00;101531.31;5020702;28;20048;-70
2022/01/15 04:02:37;;;;;;;27.48;15.80;;;;;;;3.69;100.00;101525.06;5021800;28;20037;-71
2022/01/15 04:05:23;;;;;;;26.60;16.35;;;;;;;4.00;100.00;101525.81;5020464;28;20041;-71
2022/01/15 04:08:09;;;;;;;29.48;16.60;;;;;;;4.41;100.00;101524.06;5035249;28;20057;-71
2022/01/15 04:10:56;;;;;;;27.98;16.88;;;;;;;4.47;100.00;101534.56;5034646;28;20175;-71
2022/01/15 04:13:41;;;;;;;27.33;16.10;;;;;;;4.43;100.00;101538.81;5034356;28;20052;-70
2022/01/15 04:16:29;;;;;;;27.95;16.60;;;;;;;4.41;100.00;101545.69;5033929;28;20033;-71
2022/01/15 04:19:15;;;;;;;29.63;17.08;;;;;;;4.57;100.00;101554.66;5020716;28;20025;-71
2022/01/15 04:22:00;;;;;;;27.17;17.20;;;;;;;4.63;100.00;101545.25;5019413;28;20120;-71
2022/01/15 04:24:46;;;;;;;29.58;17.58;;;;;;;4.74;100.00;101551.53;5035075;28;20033;-70
2022/01/15 04:27:32;;;;;;;27.92;16.52;;;;;;;4.18;100.00;101566.81;5019131;28;20048;-71
2022/01/15 04:30:18;;;;;;;30.00;17.48;;;;;;;4.34;100.00;101574.94;5035491;28;20025;-72
2022/01/15 04:33:04;;;;;;;29.98;18.17;;;;;;;4.14;100.00;101572.78;5034979;28;20030;-70
2022/01/15 04:35:50;;;;;;;31.60;19.05;;;;;;;4.53;100.00;101574.47;5035395;28;20041;-70
2022/01/15 04:38:38;;;;;;;28.83;17.20;;;;;;;3.83;100.00;101584.19;5034991;28;20030;-69
2022/01/15 04:42:22;;;;;;;29.52;17.98;;;;;;;3.52;100.00;101589.47;5020126;28;20025;-72
2022/01/15 04:45:08;;;;;;;30.40;17.33;;;;;;;3.01;100.00;101595.03;5033466;28;20021;-71
2022/01/15 04:47:54;;;;;;;31.30;17.98;;;;;;;2.78;100.00;101609.91;5019716;28;20344;-70
2022/01/15 04:54:21;;;;;;;31.67;18.27;;;;;;;2.98;100.00;101618.22;5034217;28;20100;-71
2022/01/15 04:57:07;;;;;;;30.40;16.80;;;;;;;3.04;100.00;101619.25;5038357;28;20021;-72
2022/01/15 04:59:53;;;;;;;29.45;16.42;;;;;;;2.88;100.00;101619.69;5038107;28;20355;-72
2022/01/15 05:02:39;;;;;;;30.17;17.05;;;;;;;3.04;100.00;101616.69;5038411;28;20029;-72
2022/01/15 05:05:26;;;;;;;31.77;18.20;;;;;;;3.18;100.00;101625.66;5024267;28;20104;-72
2022/01/15 05:08:15;;;;;;;28.95;16.65;;;;;;;2.67;100.00;101626.84;5022655;28;20053;-72
2022/01/15 05:11:11;;;;;;;31.98;17.95;;;;;;;2.84;100.00;101627.31;5038517;28;20412;-72
2022/01/15 05:13:56;;;;;;;30.27;17.27;;;;;;;2.79;100.00;101631.47;5024020;28;20350;-72
2022/01/15 05:16:44;;;;;;;34.85;18.10;;;;;;;2.63;100.00;101622.41;5024235;28;20033;-72
2022/01/15 05:19:29;;;;;;;34.75;19.20;;;;;;;2.65;100.00;101622.47;5024104;28;20021;-72
2022/01/15 05:22:16;;;;;;;35.60;19.48;;;;;;;2.66;100.00;101619.03;5038143;28;20030;-72
2022/01/15 05:25:04;;;;;;;39.25;21.58;;;;;;;2.69;100.00;101620.00;5037133;28;20026;-71
2022/01/15 05:27:51;;;;;;;38.53;21.40;;;;;;;2.57;100.00;101629.13;5037033;28;20033;-72
2022/01/15 05:30:37;;;;;;;40.08;22.13;;;;;;;2.71;100.00;101620.94;5037194;28;20086;-71
2022/01/15 05:33:23;;;;;;;39.72;22.38;;;;;;;2.83;100.00;101636.81;5036332;28;20458;-71
2022/01/15 05:38:36;;;;;;;36.80;20.05;;;;;;;2.57;100.00;101640.34;5035923;28;20045;-70
2022/01/15 05:41:22;;;;;;;36.45;19.40;;;;;;;2.49;100.00;101638.38;5036820;28;20389;-71
2022/01/15 05:44:08;;;;;;;36.22;19.92;;;;;;;2.72;100.00;101639.91;5037858;28;20354;-70
2022/01/15 05:46:54;;;;;;;33.17;18.30;;;;;;;2.77;100.00;101649.53;5034349;28;20024;-70
2022/01/15 05:49:39;;;;;;;29.50;17.30;;;;;;;2.50;100.00;101659.13;5057233;28;20029;-70
2022/01/15 05:52:25;;;;;;;33.10;18.13;;;;;;;2.72;100.00;101664.06;5040683;28;20442;-71
2022/01/15 05:55:11;;;;;;;34.00;18.70;;;;;;;2.67;100.00;101670.81;5056864;28;20098;-71
2022/01/15 05:57:57;;;;;;;32.60;18.05;;;;;;;2.58;100.00;101670.53;5056914;28;20477;-71
2022/01/15 06:00:43;;;;;;;34.88;18.40;;;;;;;2.79;100.00;101662.53;5057110;28;20024;-71
2022/01/15 06:03:29;;;;;;;32.08;17.77;;;;;;;2.42;100.00;101673.53;5055747;28;20353;-70
2022/01/15 06:06:14;;;;;;;34.05;18.48;;;;;;;2.49;100.00;101679.75;5041465;28;20373;-70
2022/01/15 06:09:01;;;;;;;29.20;18.38;;;;;;;2.45;100.00;101681.34;5056831;28;20025;-70
2022/01/15 06:11:46;;;;;;;31.42;18.52;;;;;;;2.48;100.00;101689.22;5056985;28;20103;-70
2022/01/15 06:14:32;;;;;;;35.42;18.60;;;;;;;2.63;100.00;101691.38;5041431;28;20025;-70
2022/01/15 06:17:18;;;;;;;38.03;20.23;;;;;;;2.55;100.00;101698.91;5056334;28;20108;-70
2022/01/15 06:20:05;;;;;;;36.70;19.73;;;;;;;2.53;100.00;101697.13;5056491;28;20474;-71
2022/01/15 06:22:51;;;;;;;38.33;21.13;;;;;;;2.61;100.00;101698.22;5056411;28;20091;-70
2022/01/15 06:25:36;;;;;;;33.88;20.17;;;;;;;2.73;100.00;101719.28;5056103;28;20102;-70
2022/01/15 06:28:22;;;;;;;35.15;19.88;;;;;;;2.52;100.00;101711.75;5055809;28;20075;-70
2022/01/15 06:31:08;;;;;;;37.28;19.90;;;;;;;2.45;100.00;101714.97;5055916;28;20017;-70
2022/01/15 06:33:54;;;;;;;40.53;21.63;;;;;;;2.69;100.00;101710.53;5055094;28;20025;-69
2022/01/15 06:36:39;;;;;;;40.80;21.92;;;;;;;2.31;100.00;101711.09;5056768;28;20072;-69
2022/01/15 06:43:07;;;;;;;45.13;24.20;;;;;;;3.08;100.00;101722.06;5056430;28;20033;-70
2022/01/15 06:45:53;;;;;;;48.47;24.65;;;;;;;2.86;100.00;101734.34;5055621;28;20049;-70
2022/01/15 06:48:39;;;;;;;44.55;23.83;;;;;;;3.31;100.00;101727.88;5055201;28;20025;-70
2022/01/15 06:51:25;;;;;;;38.63;22.48;;;;;;;3.30;100.00;101733.91;5041408;28;20343;-70
2022/01/15 06:54:11;;;;;;;47.42;23.15;;;;;;;3.22;100.00;101738.84;5055235;28;20045;-70
2022/01/15 06:56:56;;;;;;;42.58;22.77;;;;;;;3.42;100.00;101749.78;5055406;28;20024;-70
2022/01/15 06:59:45;;;;;;;41.75;23.17;;;;;;;3.48;100.00;101756.00;5056417;28;20387;-70
2022/01/15 07:02:31;;;;;;;43.88;24.00;;;;;;;3.66;100.00;101758.22;5055106;28;20064;-70
2022/01/15 07:05:20;;;;;;;37.33;20.27;;;;;;;3.40;100.00;101756.63;5056396;28;20045;-70
2022/01/15 07:08:08;;;;;;;34.22;18.73;;;;;;;3.26;100.00;101758.81;5054684;28;20372;-71
2022/01/15 07:10:53;;;;;;;36.28;19.63;;;;;;;3.39;100.00;101760.06;5038839;28;20017;-70
2022/01/15 07:13:39;;;;;;;33.13;18.80;;;;;;;3.58;100.00;101762.31;5055250;28;20043;-71
2022/01/15 07:16:25;;;;;;;35.58;19.27;;;;;;;3.58;100.00;101751.97;5054569;28;20031;-72
2022/01/15 07:19:11;;;;;;;34.70;19.38;;;;;;;3.60;100.00;101745.09;5054913;28;20020;-71
2022/01/15 07:21:57;;;;;;;34.42;19.70;;;;;;;3.58;100.00;101752.81;5054860;28;20334;-71
2022/01/15 07:24:43;;;;;;;36.08;21.02;;;;;;;3.76;100.00;101750.72;5054843;28;20108;-71
2022/01/15 07:27:29;;;;;;;38.75;19.75;;;;;;;3.85;100.00;101752.66;5055367;28;20098;-72
2022/01/15 07:33:57;;;;;;;35.55;20.95;;;;;;;3.94;100.00;101766.75;5056424;28;20473;-73
2022/01/15 07:36:52;;;;;;;36.00;19.90;;;;;;;3.96;100.00;101778.03;5053668;28;20053;-74
2022/01/15 07:39:42;;;;;;;36.90;20.83;;;;;;;4.07;100.00;101773.13;5054478;28;20461;-72
2022/01/15 07:42:34;;;;;;;38.90;21.42;;;;;;;4.34;100.00;101771.22;5055595;28;20441;-73
2022/01/15 07:45:20;;;;;;;37.83;21.40;;;;;;;3.98;100.00;101771.16;5054050;28;20025;-72
2022/01/15 07:48:06;;;;;;;37.08;20.67;;;;;;;4.12;100.00;101771.53;5054637;28;20035;-73
2022/01/15 07:50:52;;;;;;;40.17;22.08;;;;;;;4.29;100.00;101771.09;5055173;28;20442;-74
2022/01/15 07:53:38;;;;;;;37.97;21.45;;;;;;;4.49;100.00;101768.97;5055253;28;20033;-73
2022/01/15 07:56:24;;;;;;;46.78;24.65;;;;;;;4.63;100.00;101771.03;5047950;28;20347;-73
2022/01/15 07:59:09;;;;;;;39.03;21.45;;;;;;;5.14;100.00;101774.81;5039040;28;20025;-72
2022/01/15 08:01:55;;;;;;;36.28;20.92;;;;;;;5.88;100.00;101770.22;5054410;28;20078;-73
2022/01/15 08:04:41;;;;;;;37.42;21.38;;;;;;;5.41;100.00;101777.09;5053197;28;20029;-72
2022/01/15 08:07:27;;;;;;;37.70;19.73;;;;;;;5.88;100.00;101771.13;5054394;28;20029;-73
2022/01/15 08:10:13;;;;;;;36.85;20.80;;;;;;;6.26;100.00;101770.06;5054613;28;20028;-74
2022/01/15 08:12:59;;;;;;;34.63;20.75;;;;;;;6.28;100.00;101775.28;5055397;28;20445;-72
2022/01/15 08:15:45;;;;;;;32.70;19.98;;;;;;;7.00;100.00;101776.41;4992617;28;20053;-73
2022/01/15 08:18:32;;;;;;;30.88;19.30;;;;;;;6.46;100.00;101778.16;5040299;28;20051;-73
2022/01/15 08:21:17;;;;;;;33.67;19.45;;;;;;;6.76;100.00;101783.88;5038789;28;20021;-72
2022/01/15 08:24:03;;;;;;;34.75;20.00;;;;;;;6.95;100.00;101785.88;5054146;28;20067;-73
2022/01/15 08:26:51;;;;;;;36.97;20.08;;;;;;;7.17;100.00;101778.38;5039810;28;20032;-73
2022/01/15 08:29:37;;;;;;;34.53;19.92;;;;;;;7.34;100.00;101787.28;5052812;28;20054;-73
2022/01/15 08:32:23;;;;;;;32.92;20.55;;;;;;;7.21;100.00;101779.28;5053930;28;20096;-73
2022/01/15 08:35:09;;;;;;;34.25;21.45;;;;;;;7.03;100.00;101782.53;5054456;28;20032;-72
2022/01/15 08:37:55;;;;;;;35.65;21.08;;;;;;;7.37;100.00;101781.22;5052571;28;20049;-72
2022/01/15 08:41:14;;;;;;;;;;;;;;;;;;;;;
2022/01/15 08:44:00;;;;;;;34.05;21.20;;;;;;;7.53;100.00;101793.59;5053749;28;20149;-70
2022/01/15 08:46:47;;;;;;;34.15;20.13;;;;;;;7.87;100.00;101793.09;5053029;28;20021;-71
2022/01/15 08:49:33;;;;;;;32.80;20.13;;;;;;;8.31;100.00;101792.72;5053641;28;20029;-71
2022/01/15 08:52:18;;;;;;;31.70;20.40;;;;;;;8.76;100.00;101802.66;5040063;28;20055;-70
2022/01/15 08:55:05;;;;;;;29.67;19.67;;;;;;;8.18;100.00;101803.88;5055009;28;20035;-70
2022/01/15 08:57:51;;;;;;;31.92;20.40;;;;;;;7.58;100.00;101807.56;5054258;28;20060;-70
2022/01/15 09:00:36;;;;;;;30.70;20.02;;;;;;;7.30;100.00;101803.75;5054787;28;20564;-70
2022/01/15 09:03:23;;;;;;;35.38;21.55;;;;;;;6.92;100.00;101806.69;5054571;28;20025;-71
2022/01/15 09:06:09;;;;;;;35.97;21.75;;;;;;;7.11;100.00;101804.34;5039340;28;20029;-70
2022/01/15 09:08:55;;;;;;;34.92;20.95;;;;;;;6.93;100.00;101805.81;5039467;28;20465;-72
2022/01/15 09:11:41;;;;;;;35.95;21.15;;;;;;;7.09;100.00;101795.66;5052990;28;20156;-70
2022/01/15 09:14:27;;;;;;;37.25;22.30;;;;;;;7.48;100.00;101796.13;5054086;28;20063;-70
2022/01/15 09:17:13;;;;;;;35.58;22.73;;;;;;;8.27;100.00;101805.72;5052638;28;20389;-71
2022/01/15 09:19:59;;;;;;;35.10;21.80;;;;;;;7.68;100.00;101796.41;5054051;28;20099;-71
2022/01/15 09:22:44;;;;;;;35.53;22.52;;;;;;;8.01;100.00;101802.84;5053783;28;20429;-71
2022/01/15 09:25:30;;;;;;;38.25;23.10;;;;;;;8.00;100.00;101792.41;5053408;28;20047;-71
2022/01/15 09:35:04;;;;;;;35.33;21.80;;;;;;;8.09;100.00;101777.69;5053947;28;20039;-71
2022/01/15 09:37:51;;;;;;;39.17;23.05;;;;;;;8.17;100.00;101769.94;5052693;28;20057;-71
2022/01/15 09:40:40;;;;;;;37.22;21.70;;;;;;;7.75;100.00;101774.72;5054017;28;20416;-71
2022/01/15 09:43:26;;;;;;;37.80;21.60;;;;;;;7.72;100.00;101779.91;5042544;28;20033;-71
2022/01/15 09:46:12;;;;;;;36.45;21.10;;;;;;;7.54;100.00;101791.00;5041620;28;20054;-70
2022/01/15 09:49:00;;;;;;;36.40;20.13;;;;;;;7.12;100.00;101787.00;5056669;28;20114;-71
2022/01/15 09:51:47;;;;;;;34.33;20.70;;;;;;;7.76;100.00;101787.78;5057028;28;20044;-70
2022/01/15 09:54:33;;;;;;;39.20;22.08;;;;;;;7.75;100.00;101780.81;5051355;28;20109;-71
2022/01/15 09:57:19;;;;;;;35.50;21.35;;;;;;;7.96;100.00;101793.22;5056951;28;20021;-70
2022/01/15 10:00:09;;;;;;;32.90;20.85;;;;;;;8.02;100.00;101785.44;5057473;28;20442;-71
2022/01/15 10:02:55;;;;;;;32.60;20.27;;;;;;;8.09;100.00;101777.69;5055959;28;20029;-70
2022/01/15 10:05:41;;;;;;;30.92;19.65;;;;;;;8.07;100.00;101778.53;5210175;23;20020;-70
2022/01/15 10:08:28;;;;;;;31.38;19.95;;;;;;;8.05;100.00;101775.03;5021199;28;20045;-71
2022/01/15 10:11:13;;;;;;;33.85;20.60;;;;;;;7.63;100.00;101775.47;5037288;28;20095;-71
2022/01/15 10:13:59;;;;;;;31.75;20.15;;;;;;;7.56;100.00;101763.19;5035413;28;20101;-70
2022/01/15 10:16:45;;;;;;;30.92;19.45;;;;;;;7.76;100.00;101761.69;5023160;28;20121;-70
2022/01/15 10:19:36;;;;;;;36.70;20.85;;;;;;;7.85;100.00;101758.31;5015721;28;20026;-71
2022/01/15 10:22:25;;;;;;;29.42;18.75;;;;;;;7.79;100.00;101756.50;5015966;28;20022;-72
2022/01/15 10:25:21;;;;;;;32.17;19.33;;;;;;;7.98;100.00;101754.97;5016159;28;20045;-70
2022/01/15 10:28:08;;;;;;;30.98;19.55;;;;;;;7.90;100.00;101754.00;5001732;28;20033;-71
2022/01/15 10:30:55;;;;;;;32.38;19.60;;;;;;;8.20;100.00;101759.53;5002659;28;20026;-70
2022/01/15 10:33:40;;;;;;;32.00;19.50;;;;;;;8.32;100.00;101759.66;5016673;28;20095;-71
2022/01/15 10:36:31;;;;;;;34.13;20.10;;;;;;;8.51;100.00;101761.53;5002233;28;20351;-70
2022/01/15 10:39:21;;;;;;;33.05;20.35;;;;;;;8.08;100.00;101751.59;5016577;28;20057;-72
2022/01/15 10:42:15;;;;;;;30.70;18.77;;;;;;;8.79;100.00;101753.91;5017094;28;20018;-71
2022/01/15 10:45:09;;;;;;;31.05;19.92;;;;;;;8.97;100.00;101746.16;5015493;28;20034;-70
2022/01/15 10:47:56;;;;;;;28.02;19.05;;;;;;;8.76;100.00;101738.19;5015919;28;20026;-70
2022/01/15 10:50:42;;;;;;;32.15;19.30;;;;;;;9.11;100.00;101739.28;5016666;28;20029;-70
2022/01/15 10:53:38;;;;;;;33.88;20.17;;;;;;;8.91;100.00;101740.91;5015435;28;20032;-73
2022/01/15 10:56:24;;;;;;;31.58;20.30;;;;;;;9.15;100.00;101737.53;5015970;28;20358;-72
2022/01/15 10:59:11;;;;;;;33.83;20.58;;;;;;;9.14;100.00;101739.31;5016072;28;20122;-72
2022/01/15 11:02:15;;;;;;;31.15;19.10;;;;;;;9.12;100.00;101737.50;5002162;28;20111;-72
2022/01/15 11:05:18;;;;;;;30.08;18.58;;;;;;;9.12;100.00;101737.50;5016174;28;20478;-71
2022/01/15 11:08:09;;;;;;;29.35;18.05;;;;;;;9.31;100.00;101723.66;5001689;28;20057;-72
2022/01/15 11:11:23;;;;;;;29.70;18.27;;;;;;;9.66;100.00;101719.41;5015873;28;20026;-72
2022/01/15 11:14:09;;;;;;;26.30;16.45;;;;;;;10.12;100.00;101715.16;5002717;28;20063;-72
2022/01/15 11:16:56;;;;;;;29.08;17.15;;;;;;;10.28;100.00;101704.66;5015232;28;20117;-72
2022/01/15 11:19:45;;;;;;;24.77;15.73;;;;;;;10.20;100.00;101706.41;5014567;28;20033;-72
2022/01/15 11:22:32;;;;;;;23.20;14.70;;;;;;;10.25;100.00;101707.28;5015642;28;20025;-71
2022/01/15 11:25:18;;;;;;;22.13;13.82;;;;;;;10.18;100.00;101703.78;5014661;28;20053;-71
2022/01/15 11:28:05;;;;;;;22.08;13.20;;;;;;;10.83;100.00;101700.19;5016263;28;20107;-71
2022/01/15 11:31:04;;;;;;;19.10;12.50;;;;;;;10.60;100.00;101702.00;5014256;28;20111;-71
2022/01/15 11:33:52;;;;;;;19.17;12.18;;;;;;;10.75;100.00;101699.34;5015107;28;20132;-71
2022/01/15 11:36:42;;;;;;;22.77;13.63;;;;;;;10.46;100.00;101696.78;5016325;28;20065;-73
2022/01/15 11:39:28;;;;;;;19.02;12.70;;;;;;;11.32;98.73;101688.63;5014441;28;20037;-73
2022/01/15 11:42:33;;;;;;;20.95;12.43;;;;;;;11.14;94.29;101686.97;5002032;28;20037;-71
2022/01/15 11:45:35;;;;;;;19.52;11.90;;;;;;;11.56;91.24;101694.63;5015694;28;20029;-73
2022/01/15 11:48:30;;;;;;;19.02;12.40;;;;;;;11.14;88.21;101697.47;5015475;28;20446;-71
2022/01/15 11:51:18;;;;;;;17.92;10.02;;;;;;;11.80;79.46;101686.63;5001186;28;20065;-73
2022/01/15 11:57:45;;;;;;;14.30;8.52;;;;;;;11.39;75.21;101692.97;5101150;23;20049;-72
2022/01/15 12:00:32;;;;;;;13.27;7.25;;;;;;;11.28;69.83;101698.25;5053880;28;20048;-72
2022/01/15 12:03:19;;;;;;;11.02;6.88;;;;;;;11.06;70.78;101707.13;5054067;28;20357;-71
2022/01/15 12:06:04;;;;;;;12.15;6.55;;;;;;;10.77;71.56;101700.22;5053259;28;20107;-72
2022/01/15 12:08:50;;;;;;;12.55;7.50;;;;;;;11.30;66.62;101701.78;5054527;28;20178;-71
2022/01/15 12:11:36;;;;;;;11.05;6.93;;;;;;;11.15;68.27;101709.69;5055253;28;20055;-72
2022/01/15 12:14:46;;;;;;;10.80;6.90;;;;;;;11.42;66.34;101706.06;5055715;28;20430;-73
2022/01/15 12:18:27;;;;;;;13.93;7.20;;;;;;;11.10;64.58;101695.75;5055038;28;20033;-71
2022/01/15 12:24:58;;;;;;;10.73;6.68;;;;;;;10.37;68.30;101694.16;5055852;28;20025;-73
2022/01/15 12:27:45;;;;;;;10.25;7.15;;;;;;;10.64;69.56;101701.97;5054864;28;20031;-71
2022/01/15 12:31:17;;;;;;;13.77;7.25;;;;;;;10.61;69.10;101691.50;5054625;28;20027;-71
2022/01/15 12:34:26;;;;;;;10.75;6.55;;;;;;;10.76;68.52;101698.47;5055002;28;20040;-73
2022/01/15 12:37:14;;;;;;;10.40;6.95;;;;;;;10.55;69.83;101686.28;5297733;22;20040;-73
2022/01/15 12:40:03;;;;;;;11.10;7.00;;;;;;;10.30;70.27;101691.56;5053104;28;20400;-72
2022/01/15 12:43:00;;;;;;;13.00;6.75;;;;;;;10.17;68.84;101703.81;5039962;28;20121;-72
2022/01/15 12:45:47;;;;;;;11.82;6.20;;;;;;;9.99;66.56;101693.28;5054152;28;20021;-73
2022/01/15 12:48:36;;;;;;;7.15;4.85;;;;;;;9.78;61.75;101694.13;5054810;28;20021;-73
2022/01/15 12:51:22;;;;;;;9.52;4.85;;;;;;;9.71;61.84;101694.13;5053060;28;20330;-75
2022/01/15 12:54:08;;;;;;;9.88;5.68;;;;;;;9.77;60.51;101700.22;5053878;28;20398;-73
2022/01/15 12:56:54;;;;;;;10.40;5.63;;;;;;;9.89;61.12;101697.63;5054672;28;20021;-73
2022/01/15 12:59:40;;;;;;;11.80;5.82;;;;;;;9.91;59.75;101698.53;5054268;28;20033;-73
2022/01/15 13:02:26;;;;;;;9.13;5.22;;;;;;;9.62;59.86;101686.25;5040481;28;20105;-74
2022/01/15 13:05:12;;;;;;;11.88;5.20;;;;;;;9.62;58.08;101686.25;5053342;28;20049;-74
2022/01/15 13:08:04;;;;;;;11.60;5.15;;;;;;;9.69;54.76;101694.13;5054480;28;20045;-73
2022/01/15 13:10:57;;;;;;;8.90;4.70;;;;;;;9.72;54.18;101688.00;5039942;28;20059;-73
2022/01/15 13:13:46;;;;;;;8.27;4.60;;;;;;;9.67;53.07;101693.25;5053676;28;20021;-72
2022/01/15 13:16:33;;;;;;;9.23;4.32;;;;;;;9.55;53.66;101697.56;5040980;28;20055;-73
2022/01/15 13:19:53;;;;;;;8.60;4.82;;;;;;;9.68;53.72;101696.72;5057487;28;20342;-74
2022/01/15 13:22:39;;;;;;;6.97;3.65;;;;;;;9.56;54.27;101696.69;5057853;28;20056;-74
2022/01/15 13:25:26;;;;;;;6.78;3.60;;;;;;;9.77;54.04;101695.00;5057664;28;20035;-73
2022/01/15 13:28:12;;;;;;;9.00;3.85;;;;;;;9.58;54.00;101701.09;5043746;28;20339;-73
2022/01/15 13:30:58;;;;;;;6.68;3.80;;;;;;;9.41;53.25;101701.91;5044405;28;20029;-72
2022/01/15 13:33:45;;;;;;;5.25;3.15;;;;;;;9.32;51.82;101697.53;5057004;28;20029;-72
2022/01/15 13:36:31;;;;;;;7.30;3.50;;;;;;;9.03;52.59;101695.66;5057434;28;20154;-72
2022/01/15 13:39:18;;;;;;;7.95;3.58;;;;;;;9.22;52.62;101703.59;5057194;28;20017;-72
2022/01/15 13:42:13;;;;;;;8.25;3.83;;;;;;;9.08;52.91;101710.50;5057451;28;20036;-73
2022/01/15 13:45:05;;;;;;;7.07;3.38;;;;;;;9.15;53.18;101706.16;5057229;28;20428;-73
2022/01/15 13:47:51;;;;;;;7.30;3.60;;;;;;;9.10;53.18;101708.78;5057269;28;20044;-73
2022/01/15 13:53:44;;;;;;;8.98;4.22;;;;;;;9.31;53.34;101702.75;5046259;28;20512;-72